»·PEaware :: SE-GRG KPDX-KOTH

SE-GRG :: KPDX-KOTH

FLIGHT INFORMATION

Flight Status: Arrived
Operator: Privately registered:
Sweden
More flights under this callsign
Pilot: Gregory J. (18418)
Aircraft: Unknown
(DA62)
More flights by this aircraft type
Origin: KPDX Portland Intl
United States
Destination: KOTH North Bend Mun
United States
More flights between these airports :: More routes between these airports
Route: +UBG ONP COAST TO KOTH
File this flight plan on PilotEdge
Remarks:
Altitude:
(Current/Filed)
65ft
Speed:
(Current/Filed)
140kts
Departed: 24-Apr-18 10:13 AM
Arrived: 24-Apr-18 11:19 AM
Distance/Time
Traveled:
148nm/1:06
Distance/Time
To Go:
Arrived

Flight Plot

Page will automatically refresh every two minutes.

Flight plan parsing failed; only flown route is shown


Map Options




Map Legend


Flown Route
Filed Route
Departure Airport
Arrival Airport
Navaid (VOR, NDB)
Fix

Horizontal Profiles

Position Reports

Time Latitude Longitude Heading Altitude Ground
Speed
24-Apr-18 09:43 45.587144 -122.582333 209 33ft 0kts
24-Apr-18 09:44 45.587144 -122.582333 209 33ft 0kts
24-Apr-18 09:45 45.587144 -122.582333 209 33ft 0kts
24-Apr-18 09:46 45.587144 -122.582333 209 33ft 0kts
24-Apr-18 09:47 45.587144 -122.582333 209 33ft 0kts
24-Apr-18 09:48 45.587144 -122.582333 209 33ft 0kts
24-Apr-18 09:49 45.587144 -122.582333 209 33ft 0kts
24-Apr-18 09:50 45.587144 -122.582333 209 33ft 0kts
24-Apr-18 09:51 45.587144 -122.582333 209 33ft 0kts
24-Apr-18 09:52 45.587144 -122.582333 209 33ft 0kts
24-Apr-18 09:53 45.587144 -122.582333 209 33ft 0kts
24-Apr-18 09:54 45.587144 -122.582333 209 33ft 0kts
24-Apr-18 09:55 45.587144 -122.582333 209 33ft 0kts
24-Apr-18 09:56 45.587144 -122.582333 209 33ft 0kts
24-Apr-18 09:57 45.587144 -122.582333 209 33ft 0kts
24-Apr-18 09:58 45.587144 -122.582333 209 33ft 0kts
24-Apr-18 09:59 45.587144 -122.582333 209 33ft 0kts
24-Apr-18 10:00 45.587144 -122.582333 209 33ft 0kts
24-Apr-18 10:01 45.587144 -122.582333 209 33ft 0kts
24-Apr-18 10:02 45.587144 -122.582333 209 33ft 0kts
24-Apr-18 10:03 45.587226 -122.582771 300 33ft 4kts
24-Apr-18 10:04 45.589018 -122.583991 300 33ft 8kts
24-Apr-18 10:05 45.590512 -122.587857 299 33ft 15kts
24-Apr-18 10:06 45.592594 -122.593185 299 33ft 13kts
24-Apr-18 10:07 45.594274 -122.597484 301 33ft 8kts
24-Apr-18 10:08 45.594423 -122.597517 43 33ft 0kts
24-Apr-18 10:09 45.594423 -122.597517 43 33ft 0kts
24-Apr-18 10:10 45.594423 -122.597517 43 33ft 0kts
24-Apr-18 10:11 45.594843 -122.596561 78 33ft 6kts
24-Apr-18 10:12 45.593861 -122.593180 118 33ft 49kts
24-Apr-18 10:13 45.582170 -122.563986 117 568ft 110kts
24-Apr-18 10:14 45.566120 -122.524073 116 1479ft 114kts
24-Apr-18 10:15 45.550667 -122.485691 116 2461ft 110kts
24-Apr-18 10:16 45.525867 -122.453928 190 2644ft 165kts
24-Apr-18 10:17 45.500867 -122.507094 239 3403ft 160kts
24-Apr-18 10:18 45.481419 -122.563642 239 4172ft 155kts
24-Apr-18 10:19 45.465566 -122.611479 239 5580ft 116kts
24-Apr-18 10:20 45.452372 -122.654573 240 6588ft 124kts
24-Apr-18 10:21 45.433176 -122.710003 239 6655ft 182kts
24-Apr-18 10:22 45.410075 -122.777333 239 6645ft 193kts
24-Apr-18 10:23 45.385216 -122.844985 240 6621ft 191kts
24-Apr-18 10:24 45.361263 -122.910969 247 6619ft 186kts
24-Apr-18 10:25 45.340790 -122.977848 247 6619ft 184kts
24-Apr-18 10:26 45.306181 -123.032491 224 6496ft 196kts
24-Apr-18 10:27 45.268562 -123.088677 224 6493ft 196kts
24-Apr-18 10:28 45.232175 -123.146034 225 6491ft 195kts
24-Apr-18 10:29 45.195592 -123.202522 223 6494ft 193kts
24-Apr-18 10:30 45.157748 -123.255044 223 6492ft 189kts
24-Apr-18 10:31 45.119969 -123.307249 223 6492ft 191kts
24-Apr-18 10:32 45.082013 -123.359648 223 6492ft 191kts
24-Apr-18 10:33 45.043991 -123.412100 223 6492ft 191kts
24-Apr-18 10:34 45.006649 -123.463576 223 6492ft 191kts
24-Apr-18 10:35 44.969203 -123.515159 223 6492ft 191kts
24-Apr-18 10:36 44.931196 -123.567480 223 6492ft 191kts
24-Apr-18 10:37 44.893326 -123.619575 223 6492ft 191kts
24-Apr-18 10:38 44.856242 -123.670571 222 6490ft 191kts
24-Apr-18 10:39 44.818292 -123.722758 222 6491ft 191kts
24-Apr-18 10:40 44.779905 -123.774901 223 6466ft 193kts
24-Apr-18 10:41 44.740613 -123.827267 224 6420ft 200kts
24-Apr-18 10:42 44.703311 -123.885785 225 6410ft 201kts
24-Apr-18 10:43 44.665509 -123.943354 220 6411ft 201kts
24-Apr-18 10:44 44.624609 -123.995388 205 6448ft 196kts
24-Apr-18 10:45 44.575217 -124.023795 194 6447ft 194kts
24-Apr-18 10:46 44.524348 -124.045698 185 6447ft 188kts
24-Apr-18 10:47 44.473308 -124.058089 185 6447ft 187kts
24-Apr-18 10:48 44.422411 -124.070714 184 6447ft 186kts
24-Apr-18 10:49 44.371263 -124.083090 185 6447ft 186kts
24-Apr-18 10:50 44.320271 -124.095428 184 6447ft 186kts
24-Apr-18 10:51 44.269211 -124.107894 185 6331ft 190kts
24-Apr-18 10:52 44.217371 -124.120580 183 5826ft 184kts
24-Apr-18 10:53 44.167920 -124.132448 184 5259ft 179kts
24-Apr-18 10:54 44.119014 -124.143234 184 4663ft 178kts
24-Apr-18 10:55 44.070366 -124.153777 183 4066ft 177kts
24-Apr-18 10:56 44.022069 -124.164258 183 3495ft 175kts
24-Apr-18 10:57 43.973810 -124.171406 181 3000ft 177kts
24-Apr-18 10:58 43.924249 -124.174029 181 2508ft 176kts
24-Apr-18 10:59 43.879340 -124.172695 181 2011ft 158kts
24-Apr-18 11:00 43.837667 -124.173714 187 1918ft 146kts
24-Apr-18 11:01 43.797538 -124.177696 187 1920ft 143kts
24-Apr-18 11:02 43.758181 -124.181739 189 1825ft 144kts
24-Apr-18 11:03 43.717898 -124.187728 189 1588ft 148kts
24-Apr-18 11:04 43.677225 -124.195303 192 1185ft 143kts
24-Apr-18 11:05 43.640409 -124.203767 194 1195ft 128kts
24-Apr-18 11:06 43.611705 -124.211591 194 1165ft 94kts
24-Apr-18 11:07 43.584785 -124.218843 195 1185ft 101kts
24-Apr-18 11:08 43.556981 -124.226427 195 1184ft 102kts
24-Apr-18 11:09 43.529113 -124.234029 195 1183ft 101kts
24-Apr-18 11:10 43.520460 -124.257609 320 1182ft 94kts
24-Apr-18 11:11 43.538599 -124.239734 105 1180ft 108kts
24-Apr-18 11:12 43.514752 -124.228333 182 1181ft 91kts
24-Apr-18 11:13 43.489807 -124.227567 183 1182ft 89kts
24-Apr-18 11:14 43.464406 -124.227775 187 1056ft 93kts
24-Apr-18 11:15 43.439006 -124.231792 193 755ft 90kts
24-Apr-18 11:16 43.416046 -124.228183 150 440ft 84kts
24-Apr-18 11:17 43.402039 -124.232497 294 463ft 71kts
24-Apr-18 11:18 43.417407 -124.244339 331 21ft 9kts
24-Apr-18 11:19 43.417317 -124.245426 242 21ft 0kts
24-Apr-18 11:20 43.415795 -124.245430 192 21ft 10kts
24-Apr-18 11:21 43.415901 -124.245795 329 21ft 0kts
24-Apr-18 11:22 43.415901 -124.245795 329 21ft 0kts

Navigation Log

Ident Type
Flight plan parsing failed, navigation log unavailable